sensor_id;sensor_type;location;lat;lon;timestamp;P1;durP1;ratioP1;P2;durP2;ratioP2
15012;SDS011;7603;49.432;11.418;2023-04-03T00:00:28;1.20;;;1.20;;
15012;SDS011;7603;49.432;11.418;2023-04-03T00:02:54;1.27;;;1.17;;
15012;SDS011;7603;49.432;11.418;2023-04-03T00:05:20;1.50;;;1.40;;
15012;SDS011;7603;49.432;11.418;2023-04-03T00:07:46;1.53;;;1.43;;
15012;SDS011;7603;49.432;11.418;2023-04-03T00:10:11;2.30;;;2.07;;
15012;SDS011;7603;49.432;11.418;2023-04-03T00:12:38;1.47;;;1.27;;
15012;SDS011;7603;49.432;11.418;2023-04-03T00:15:04;1.23;;;1.23;;
15012;SDS011;7603;49.432;11.418;2023-04-03T00:17:30;1.50;;;1.50;;
15012;SDS011;7603;49.432;11.418;2023-04-03T00:19:55;1.40;;;1.40;;
15012;SDS011;7603;49.432;11.418;2023-04-03T00:22:21;5.00;;;1.73;;
15012;SDS011;7603;49.432;11.418;2023-04-03T00:24:46;2.27;;;2.07;;
15012;SDS011;7603;49.432;11.418;2023-04-03T00:27:12;4.33;;;3.07;;
15012;SDS011;7603;49.432;11.418;2023-04-03T00:29:37;1.30;;;1.30;;
15012;SDS011;7603;49.432;11.418;2023-04-03T00:32:03;1.77;;;1.57;;
15012;SDS011;7603;49.432;11.418;2023-04-03T00:34:29;8.90;;;2.63;;
15012;SDS011;7603;49.432;11.418;2023-04-03T00:36:55;4.70;;;2.23;;
15012;SDS011;7603;49.432;11.418;2023-04-03T00:39:20;2.27;;;2.10;;
15012;SDS011;7603;49.432;11.418;2023-04-03T00:41:46;2.43;;;2.00;;
15012;SDS011;7603;49.432;11.418;2023-04-03T00:44:22;1.77;;;1.67;;
15012;SDS011;7603;49.432;11.418;2023-04-03T00:47:09;1.70;;;1.70;;
15012;SDS011;7603;49.432;11.418;2023-04-03T00:49:38;1.77;;;1.67;;
15012;SDS011;7603;49.432;11.418;2023-04-03T00:52:08;2.40;;;2.20;;
15012;SDS011;7603;49.432;11.418;2023-04-03T00:54:40;1.27;;;1.27;;
15012;SDS011;7603;49.432;11.418;2023-04-03T00:57:08;1.53;;;1.43;;
15012;SDS011;7603;49.432;11.418;2023-04-03T00:59:35;1.90;;;1.70;;
15012;SDS011;7603;49.432;11.418;2023-04-03T01:02:07;1.60;;;1.50;;
15012;SDS011;7603;49.432;11.418;2023-04-03T01:04:42;2.00;;;1.90;;
15012;SDS011;7603;49.432;11.418;2023-04-03T01:07:10;8.10;;;2.47;;
15012;SDS011;7603;49.432;11.418;2023-04-03T01:09:44;1.57;;;1.47;;
15012;SDS011;7603;49.432;11.418;2023-04-03T01:12:18;1.67;;;1.57;;
15012;SDS011;7603;49.432;11.418;2023-04-03T01:14:48;1.50;;;1.40;;
15012;SDS011;7603;49.432;11.418;2023-04-03T01:19:57;1.90;;;1.80;;
15012;SDS011;7603;49.432;11.418;2023-04-03T01:22:52;1.73;;;1.70;;
15012;SDS011;7603;49.432;11.418;2023-04-03T01:25:21;4.17;;;2.60;;
15012;SDS011;7603;49.432;11.418;2023-04-03T01:27:47;1.30;;;1.30;;
15012;SDS011;7603;49.432;11.418;2023-04-03T01:30:13;1.47;;;1.47;;
15012;SDS011;7603;49.432;11.418;2023-04-03T01:32:42;2.00;;;1.90;;
15012;SDS011;7603;49.432;11.418;2023-04-03T01:35:08;1.80;;;1.70;;
15012;SDS011;7603;49.432;11.418;2023-04-03T01:37:35;1.60;;;1.50;;
15012;SDS011;7603;49.432;11.418;2023-04-03T01:40:01;1.40;;;1.30;;
15012;SDS011;7603;49.432;11.418;2023-04-03T01:42:27;2.20;;;1.63;;
15012;SDS011;7603;49.432;11.418;2023-04-03T01:44:54;1.73;;;1.63;;
15012;SDS011;7603;49.432;11.418;2023-04-03T01:47:19;1.63;;;1.53;;
15012;SDS011;7603;49.432;11.418;2023-04-03T01:49:45;2.07;;;1.97;;
15012;SDS011;7603;49.432;11.418;2023-04-03T01:52:11;1.83;;;1.67;;
15012;SDS011;7603;49.432;11.418;2023-04-03T01:54:36;2.00;;;1.90;;
15012;SDS011;7603;49.432;11.418;2023-04-03T01:57:02;1.80;;;1.70;;
15012;SDS011;7603;49.432;11.418;2023-04-03T01:59:27;1.63;;;1.63;;
15012;SDS011;7603;49.432;11.418;2023-04-03T02:01:53;4.10;;;1.57;;
15012;SDS011;7603;49.432;11.418;2023-04-03T02:04:19;1.57;;;1.47;;
15012;SDS011;7603;49.432;11.418;2023-04-03T02:06:44;1.83;;;1.73;;
15012;SDS011;7603;49.432;11.418;2023-04-03T02:09:10;2.20;;;1.57;;
15012;SDS011;7603;49.432;11.418;2023-04-03T02:11:36;1.37;;;1.37;;
15012;SDS011;7603;49.432;11.418;2023-04-03T02:14:01;1.90;;;1.80;;
15012;SDS011;7603;49.432;11.418;2023-04-03T02:16:27;1.50;;;1.40;;
15012;SDS011;7603;49.432;11.418;2023-04-03T02:18:53;1.47;;;1.37;;
15012;SDS011;7603;49.432;11.418;2023-04-03T02:21:19;1.10;;;1.10;;
15012;SDS011;7603;49.432;11.418;2023-04-03T02:23:45;1.30;;;1.30;;
15012;SDS011;7603;49.432;11.418;2023-04-03T02:26:11;1.63;;;1.50;;
15012;SDS011;7603;49.432;11.418;2023-04-03T02:28:38;1.90;;;1.80;;
15012;SDS011;7603;49.432;11.418;2023-04-03T02:31:05;2.20;;;1.87;;
15012;SDS011;7603;49.432;11.418;2023-04-03T02:33:31;1.37;;;1.37;;
15012;SDS011;7603;49.432;11.418;2023-04-03T02:35:57;1.60;;;1.50;;
15012;SDS011;7603;49.432;11.418;2023-04-03T02:38:24;1.67;;;1.67;;
15012;SDS011;7603;49.432;11.418;2023-04-03T02:40:50;1.43;;;1.40;;
15012;SDS011;7603;49.432;11.418;2023-04-03T02:43:16;1.73;;;1.67;;
15012;SDS011;7603;49.432;11.418;2023-04-03T02:45:43;1.60;;;1.50;;
15012;SDS011;7603;49.432;11.418;2023-04-03T02:48:08;1.90;;;1.80;;
15012;SDS011;7603;49.432;11.418;2023-04-03T02:50:34;1.87;;;1.77;;
15012;SDS011;7603;49.432;11.418;2023-04-03T02:53:00;2.37;;;1.63;;
15012;SDS011;7603;49.432;11.418;2023-04-03T02:55:25;1.60;;;1.50;;
15012;SDS011;7603;49.432;11.418;2023-04-03T02:57:51;1.93;;;1.83;;
15012;SDS011;7603;49.432;11.418;2023-04-03T03:00:17;1.37;;;1.33;;
15012;SDS011;7603;49.432;11.418;2023-04-03T03:02:42;1.87;;;1.77;;
15012;SDS011;7603;49.432;11.418;2023-04-03T03:05:08;2.50;;;2.30;;
15012;SDS011;7603;49.432;11.418;2023-04-03T03:07:34;2.53;;;2.10;;
15012;SDS011;7603;49.432;11.418;2023-04-03T03:09:59;1.97;;;1.87;;
15012;SDS011;7603;49.432;11.418;2023-04-03T03:12:25;1.80;;;1.70;;
15012;SDS011;7603;49.432;11.418;2023-04-03T03:14:51;2.83;;;1.70;;
15012;SDS011;7603;49.432;11.418;2023-04-03T03:17:16;2.07;;;1.97;;
15012;SDS011;7603;49.432;11.418;2023-04-03T03:19:42;3.27;;;2.10;;
15012;SDS011;7603;49.432;11.418;2023-04-03T03:22:08;2.03;;;1.80;;
15012;SDS011;7603;49.432;11.418;2023-04-03T03:24:34;1.77;;;1.67;;
15012;SDS011;7603;49.432;11.418;2023-04-03T03:26:59;3.20;;;3.00;;
15012;SDS011;7603;49.432;11.418;2023-04-03T03:29:25;2.20;;;2.10;;
15012;SDS011;7603;49.432;11.418;2023-04-03T03:31:50;2.40;;;2.30;;
15012;SDS011;7603;49.432;11.418;2023-04-03T03:34:16;1.90;;;1.80;;
15012;SDS011;7603;49.432;11.418;2023-04-03T03:36:42;2.20;;;2.10;;
15012;SDS011;7603;49.432;11.418;2023-04-03T03:39:07;2.43;;;2.33;;
15012;SDS011;7603;49.432;11.418;2023-04-03T03:41:33;1.93;;;1.83;;
15012;SDS011;7603;49.432;11.418;2023-04-03T03:43:59;2.20;;;1.92;;
15012;SDS011;7603;49.432;11.418;2023-04-03T03:46:24;2.30;;;2.20;;
15012;SDS011;7603;49.432;11.418;2023-04-03T03:48:50;2.40;;;2.30;;
15012;SDS011;7603;49.432;11.418;2023-04-03T03:51:16;1.77;;;1.67;;
15012;SDS011;7603;49.432;11.418;2023-04-03T03:53:41;1.53;;;1.53;;
15012;SDS011;7603;49.432;11.418;2023-04-03T03:56:07;3.77;;;1.93;;
15012;SDS011;7603;49.432;11.418;2023-04-03T03:58:33;1.60;;;1.50;;
15012;SDS011;7603;49.432;11.418;2023-04-03T04:01:05;1.97;;;1.77;;
15012;SDS011;7603;49.432;11.418;2023-04-03T04:03:31;2.70;;;2.50;;
15012;SDS011;7603;49.432;11.418;2023-04-03T04:05:57;2.17;;;2.07;;
15012;SDS011;7603;49.432;11.418;2023-04-03T04:08:23;2.93;;;2.73;;
15012;SDS011;7603;49.432;11.418;2023-04-03T04:10:49;2.23;;;2.13;;
15012;SDS011;7603;49.432;11.418;2023-04-03T04:13:15;2.23;;;1.87;;
15012;SDS011;7603;49.432;11.418;2023-04-03T04:15:41;2.07;;;1.90;;
15012;SDS011;7603;49.432;11.418;2023-04-03T04:18:07;2.10;;;2.00;;
15012;SDS011;7603;49.432;11.418;2023-04-03T04:20:33;1.90;;;1.80;;
15012;SDS011;7603;49.432;11.418;2023-04-03T04:22:59;1.87;;;1.77;;
15012;SDS011;7603;49.432;11.418;2023-04-03T04:25:24;1.97;;;1.87;;
15012;SDS011;7603;49.432;11.418;2023-04-03T04:27:50;5.73;;;1.87;;
15012;SDS011;7603;49.432;11.418;2023-04-03T04:30:15;1.93;;;1.70;;
15012;SDS011;7603;49.432;11.418;2023-04-03T04:32:41;2.23;;;2.03;;
15012;SDS011;7603;49.432;11.418;2023-04-03T04:35:07;1.60;;;1.50;;
15012;SDS011;7603;49.432;11.418;2023-04-03T04:37:33;5.67;;;1.60;;
15012;SDS011;7603;49.432;11.418;2023-04-03T04:39:59;1.53;;;1.43;;
15012;SDS011;7603;49.432;11.418;2023-04-03T04:42:24;2.80;;;1.57;;
15012;SDS011;7603;49.432;11.418;2023-04-03T04:44:50;2.45;;;2.25;;
15012;SDS011;7603;49.432;11.418;2023-04-03T04:47:16;1.80;;;1.70;;
15012;SDS011;7603;49.432;11.418;2023-04-03T04:49:41;2.83;;;2.50;;
15012;SDS011;7603;49.432;11.418;2023-04-03T04:52:07;2.53;;;2.17;;
15012;SDS011;7603;49.432;11.418;2023-04-03T04:54:33;2.67;;;1.83;;
15012;SDS011;7603;49.432;11.418;2023-04-03T04:56:58;2.13;;;2.03;;
15012;SDS011;7603;49.432;11.418;2023-04-03T04:59:24;1.30;;;1.30;;
15012;SDS011;7603;49.432;11.418;2023-04-03T05:01:50;2.00;;;1.90;;
15012;SDS011;7603;49.432;11.418;2023-04-03T05:04:15;2.60;;;2.17;;
15012;SDS011;7603;49.432;11.418;2023-04-03T05:06:41;2.60;;;2.40;;
15012;SDS011;7603;49.432;11.418;2023-04-03T05:09:07;2.40;;;2.20;;
15012;SDS011;7603;49.432;11.418;2023-04-03T05:11:33;2.57;;;2.40;;
15012;SDS011;7603;49.432;11.418;2023-04-03T05:13:59;2.30;;;2.20;;
15012;SDS011;7603;49.432;11.418;2023-04-03T05:16:25;2.00;;;1.90;;
15012;SDS011;7603;49.432;11.418;2023-04-03T05:18:51;12.73;;;6.27;;
15012;SDS011;7603;49.432;11.418;2023-04-03T05:21:16;70.47;;;26.80;;
15012;SDS011;7603;49.432;11.418;2023-04-03T05:23:43;107.83;;;46.23;;
15012;SDS011;7603;49.432;11.418;2023-04-03T05:26:08;91.43;;;39.20;;
15012;SDS011;7603;49.432;11.418;2023-04-03T05:28:34;102.07;;;44.80;;
15012;SDS011;7603;49.432;11.418;2023-04-03T05:31:00;97.00;;;54.20;;
15012;SDS011;7603;49.432;11.418;2023-04-03T05:33:25;28.80;;;17.03;;
15012;SDS011;7603;49.432;11.418;2023-04-03T05:35:52;11.30;;;8.97;;
15012;SDS011;7603;49.432;11.418;2023-04-03T05:38:18;6.07;;;3.67;;
15012;SDS011;7603;49.432;11.418;2023-04-03T05:40:43;4.17;;;3.87;;
15012;SDS011;7603;49.432;11.418;2023-04-03T05:43:09;7.23;;;3.00;;
15012;SDS011;7603;49.432;11.418;2023-04-03T05:45:35;5.30;;;4.80;;
15012;SDS011;7603;49.432;11.418;2023-04-03T05:48:00;5.37;;;3.20;;
15012;SDS011;7603;49.432;11.418;2023-04-03T05:50:26;16.83;;;10.63;;
15012;SDS011;7603;49.432;11.418;2023-04-03T05:52:53;19.00;;;14.30;;
15012;SDS011;7603;49.432;11.418;2023-04-03T05:55:22;5.63;;;5.13;;
15012;SDS011;7603;49.432;11.418;2023-04-03T05:57:47;9.50;;;4.83;;
15012;SDS011;7603;49.432;11.418;2023-04-03T06:00:13;3.57;;;3.30;;
15012;SDS011;7603;49.432;11.418;2023-04-03T06:02:43;3.10;;;2.90;;
15012;SDS011;7603;49.432;11.418;2023-04-03T06:05:08;2.83;;;2.63;;
15012;SDS011;7603;49.432;11.418;2023-04-03T06:07:36;2.90;;;2.70;;
15012;SDS011;7603;49.432;11.418;2023-04-03T06:10:02;2.90;;;2.70;;
15012;SDS011;7603;49.432;11.418;2023-04-03T06:12:28;4.70;;;4.23;;
15012;SDS011;7603;49.432;11.418;2023-04-03T06:14:54;3.03;;;2.50;;
15012;SDS011;7603;49.432;11.418;2023-04-03T06:17:20;6.37;;;2.50;;
15012;SDS011;7603;49.432;11.418;2023-04-03T06:19:46;2.80;;;2.40;;
15012;SDS011;7603;49.432;11.418;2023-04-03T06:22:12;2.77;;;2.60;;
15012;SDS011;7603;49.432;11.418;2023-04-03T06:24:38;2.80;;;2.50;;
15012;SDS011;7603;49.432;11.418;2023-04-03T06:27:03;5.20;;;4.73;;
15012;SDS011;7603;49.432;11.418;2023-04-03T06:29:29;9.87;;;8.93;;
15012;SDS011;7603;49.432;11.418;2023-04-03T06:31:55;2.03;;;1.90;;
15012;SDS011;7603;49.432;11.418;2023-04-03T06:34:21;4.70;;;4.33;;
15012;SDS011;7603;49.432;11.418;2023-04-03T06:36:47;3.00;;;2.70;;
15012;SDS011;7603;49.432;11.418;2023-04-03T06:39:22;2.67;;;2.47;;
15012;SDS011;7603;49.432;11.418;2023-04-03T06:41:48;2.20;;;2.10;;
15012;SDS011;7603;49.432;11.418;2023-04-03T06:44:15;2.43;;;1.97;;
15012;SDS011;7603;49.432;11.418;2023-04-03T06:46:41;2.92;;;2.15;;
15012;SDS011;7603;49.432;11.418;2023-04-03T06:49:07;1.57;;;1.47;;
15012;SDS011;7603;49.432;11.418;2023-04-03T06:51:33;3.23;;;2.50;;
15012;SDS011;7603;49.432;11.418;2023-04-03T06:54:00;2.30;;;2.15;;
15012;SDS011;7603;49.432;11.418;2023-04-03T06:56:26;3.53;;;2.00;;
15012;SDS011;7603;49.432;11.418;2023-04-03T06:58:53;1.70;;;1.60;;
15012;SDS011;7603;49.432;11.418;2023-04-03T07:01:22;2.13;;;1.88;;
15012;SDS011;7603;49.432;11.418;2023-04-03T07:03:50;6.28;;;1.83;;
15012;SDS011;7603;49.432;11.418;2023-04-03T07:06:16;3.63;;;3.40;;
15012;SDS011;7603;49.432;11.418;2023-04-03T07:08:42;2.67;;;2.58;;
15012;SDS011;7603;49.432;11.418;2023-04-03T07:11:08;2.80;;;2.60;;
15012;SDS011;7603;49.432;11.418;2023-04-03T07:13:35;2.85;;;2.00;;
15012;SDS011;7603;49.432;11.418;2023-04-03T07:16:01;1.70;;;1.60;;
15012;SDS011;7603;49.432;11.418;2023-04-03T07:18:28;2.00;;;1.80;;
15012;SDS011;7603;49.432;11.418;2023-04-03T07:20:54;1.80;;;1.70;;
15012;SDS011;7603;49.432;11.418;2023-04-03T07:23:20;1.70;;;1.60;;
15012;SDS011;7603;49.432;11.418;2023-04-03T07:25:47;2.30;;;2.00;;
15012;SDS011;7603;49.432;11.418;2023-04-03T07:28:14;1.50;;;1.42;;
15012;SDS011;7603;49.432;11.418;2023-04-03T07:30:47;1.35;;;1.35;;
15012;SDS011;7603;49.432;11.418;2023-04-03T07:33:18;3.83;;;2.13;;
15012;SDS011;7603;49.432;11.418;2023-04-03T07:35:45;1.30;;;1.30;;
15012;SDS011;7603;49.432;11.418;2023-04-03T07:38:11;2.40;;;1.50;;
15012;SDS011;7603;49.432;11.418;2023-04-03T07:40:37;1.83;;;1.73;;
15012;SDS011;7603;49.432;11.418;2023-04-03T07:43:04;1.80;;;1.70;;
15012;SDS011;7603;49.432;11.418;2023-04-03T07:45:31;1.20;;;1.20;;
15012;SDS011;7603;49.432;11.418;2023-04-03T07:47:59;1.23;;;1.23;;
15012;SDS011;7603;49.432;11.418;2023-04-03T07:50:25;1.45;;;1.45;;
15012;SDS011;7603;49.432;11.418;2023-04-03T07:52:51;2.47;;;1.20;;
15012;SDS011;7603;49.432;11.418;2023-04-03T07:55:17;1.27;;;1.27;;
15012;SDS011;7603;49.432;11.418;2023-04-03T07:57:43;1.95;;;1.70;;
15012;SDS011;7603;49.432;11.418;2023-04-03T08:00:08;1.55;;;1.45;;
15012;SDS011;7603;49.432;11.418;2023-04-03T08:02:35;5.38;;;1.85;;
15012;SDS011;7603;49.432;11.418;2023-04-03T08:05:00;1.23;;;1.17;;
15012;SDS011;7603;49.432;11.418;2023-04-03T08:07:26;1.50;;;1.50;;
15012;SDS011;7603;49.432;11.418;2023-04-03T08:09:52;2.00;;;1.80;;
15012;SDS011;7603;49.432;11.418;2023-04-03T08:12:17;1.40;;;1.40;;
15012;SDS011;7603;49.432;11.418;2023-04-03T08:14:43;2.38;;;1.42;;
15012;SDS011;7603;49.432;11.418;2023-04-03T08:17:09;1.02;;;0.90;;
15012;SDS011;7603;49.432;11.418;2023-04-03T08:19:37;1.40;;;1.30;;
15012;SDS011;7603;49.432;11.418;2023-04-03T08:22:04;1.85;;;1.38;;
15012;SDS011;7603;49.432;11.418;2023-04-03T08:24:30;1.20;;;1.20;;
15012;SDS011;7603;49.432;11.418;2023-04-03T08:26:56;1.30;;;1.30;;
15012;SDS011;7603;49.432;11.418;2023-04-03T08:29:22;1.73;;;1.63;;
15012;SDS011;7603;49.432;11.418;2023-04-03T08:31:48;1.23;;;1.15;;
15012;SDS011;7603;49.432;11.418;2023-04-03T08:34:15;1.98;;;1.77;;
15012;SDS011;7603;49.432;11.418;2023-04-03T08:36:41;5.07;;;2.22;;
15012;SDS011;7603;49.432;11.418;2023-04-03T08:39:07;1.65;;;1.55;;
15012;SDS011;7603;49.432;11.418;2023-04-03T08:41:34;0.90;;;0.90;;
15012;SDS011;7603;49.432;11.418;2023-04-03T08:49:50;1.10;;;1.10;;
15012;SDS011;7603;49.432;11.418;2023-04-03T08:52:38;0.88;;;0.88;;
15012;SDS011;7603;49.432;11.418;2023-04-03T09:00:48;1.98;;;1.88;;
15012;SDS011;7603;49.432;11.418;2023-04-03T09:03:23;1.90;;;1.65;;
15012;SDS011;7603;49.432;11.418;2023-04-03T09:08:43;1.02;;;0.93;;
15012;SDS011;7603;49.432;11.418;2023-04-03T09:11:27;2.45;;;1.23;;
15012;SDS011;7603;49.432;11.418;2023-04-03T09:17:03;1.58;;;1.55;;
15012;SDS011;7603;49.432;11.418;2023-04-03T09:22:24;2.53;;;2.33;;
15012;SDS011;7603;49.432;11.418;2023-04-03T09:24:55;3.35;;;3.05;;
15012;SDS011;7603;49.432;11.418;2023-04-03T09:27:25;3.47;;;3.17;;
15012;SDS011;7603;49.432;11.418;2023-04-03T09:29:52;1.58;;;1.48;;
15012;SDS011;7603;49.432;11.418;2023-04-03T09:32:30;1.38;;;1.27;;
15012;SDS011;7603;49.432;11.418;2023-04-03T09:35:31;1.17;;;1.10;;
15012;SDS011;7603;49.432;11.418;2023-04-03T09:37:55;1.20;;;1.10;;
15012;SDS011;7603;49.432;11.418;2023-04-03T09:40:42;1.30;;;1.20;;
15012;SDS011;7603;49.432;11.418;2023-04-03T09:45:46;0.90;;;0.90;;
15012;SDS011;7603;49.432;11.418;2023-04-03T09:50:38;1.48;;;1.38;;
15012;SDS011;7603;49.432;11.418;2023-04-03T09:56:09;1.20;;;1.20;;
15012;SDS011;7603;49.432;11.418;2023-04-03T10:01:29;1.00;;;1.00;;
15012;SDS011;7603;49.432;11.418;2023-04-03T10:04:15;1.30;;;1.27;;
15012;SDS011;7603;49.432;11.418;2023-04-03T10:06:47;0.90;;;0.90;;
15012;SDS011;7603;49.432;11.418;2023-04-03T10:11:59;5.32;;;4.05;;
15012;SDS011;7603;49.432;11.418;2023-04-03T10:14:28;3.45;;;2.10;;
15012;SDS011;7603;49.432;11.418;2023-04-03T10:19:58;1.50;;;1.40;;
15012;SDS011;7603;49.432;11.418;2023-04-03T10:25:32;1.08;;;1.08;;
15012;SDS011;7603;49.432;11.418;2023-04-03T10:31:13;0.80;;;0.80;;
15012;SDS011;7603;49.432;11.418;2023-04-03T10:33:47;1.20;;;1.10;;
15012;SDS011;7603;49.432;11.418;2023-04-03T10:36:47;0.82;;;0.82;;
15012;SDS011;7603;49.432;11.418;2023-04-03T10:58:42;0.60;;;0.60;;
15012;SDS011;7603;49.432;11.418;2023-04-03T11:01:13;2.80;;;1.10;;
15012;SDS011;7603;49.432;11.418;2023-04-03T11:03:44;0.98;;;0.98;;
15012;SDS011;7603;49.432;11.418;2023-04-03T11:06:13;1.17;;;1.17;;
15012;SDS011;7603;49.432;11.418;2023-04-03T11:08:44;0.73;;;0.73;;
15012;SDS011;7603;49.432;11.418;2023-04-03T11:11:17;0.82;;;0.80;;
15012;SDS011;7603;49.432;11.418;2023-04-03T11:13:51;1.77;;;1.50;;
15012;SDS011;7603;49.432;11.418;2023-04-03T11:16:28;1.60;;;0.80;;
15012;SDS011;7603;49.432;11.418;2023-04-03T11:18:58;0.70;;;0.70;;
15012;SDS011;7603;49.432;11.418;2023-04-03T11:21:28;0.70;;;0.70;;
15012;SDS011;7603;49.432;11.418;2023-04-03T11:23:59;0.73;;;0.70;;
15012;SDS011;7603;49.432;11.418;2023-04-03T11:26:31;2.20;;;1.00;;
15012;SDS011;7603;49.432;11.418;2023-04-03T11:29:05;0.50;;;0.50;;
15012;SDS011;7603;49.432;11.418;2023-04-03T11:37:04;0.75;;;0.75;;
15012;SDS011;7603;49.432;11.418;2023-04-03T11:39:38;0.55;;;0.55;;
15012;SDS011;7603;49.432;11.418;2023-04-03T11:44:41;0.90;;;0.90;;
15012;SDS011;7603;49.432;11.418;2023-04-03T11:47:08;1.02;;;0.98;;
15012;SDS011;7603;49.432;11.418;2023-04-03T11:49:56;0.57;;;0.57;;
15012;SDS011;7603;49.432;11.418;2023-04-03T12:13:34;0.70;;;0.70;;
15012;SDS011;7603;49.432;11.418;2023-04-03T12:16:04;0.70;;;0.70;;
15012;SDS011;7603;49.432;11.418;2023-04-03T12:18:44;1.05;;;0.70;;
15012;SDS011;7603;49.432;11.418;2023-04-03T12:21:22;0.88;;;0.50;;
15012;SDS011;7603;49.432;11.418;2023-04-03T12:29:01;1.00;;;1.00;;
15012;SDS011;7603;49.432;11.418;2023-04-03T12:31:42;0.82;;;0.82;;
15012;SDS011;7603;49.432;11.418;2023-04-03T12:34:38;1.40;;;1.38;;
15012;SDS011;7603;49.432;11.418;2023-04-03T12:46:15;0.55;;;0.55;;
15012;SDS011;7603;49.432;11.418;2023-04-03T12:51:09;2.05;;;1.92;;
15012;SDS011;7603;49.432;11.418;2023-04-03T12:53:47;0.70;;;0.70;;
15012;SDS011;7603;49.432;11.418;2023-04-03T12:56:25;1.60;;;1.13;;
15012;SDS011;7603;49.432;11.418;2023-04-03T12:58:53;0.63;;;0.63;;
15012;SDS011;7603;49.432;11.418;2023-04-03T13:01:21;0.80;;;0.80;;
15012;SDS011;7603;49.432;11.418;2023-04-03T13:03:53;0.60;;;0.60;;
15012;SDS011;7603;49.432;11.418;2023-04-03T13:06:21;0.60;;;0.60;;
15012;SDS011;7603;49.432;11.418;2023-04-03T13:08:53;0.55;;;0.55;;
15012;SDS011;7603;49.432;11.418;2023-04-03T13:11:22;0.55;;;0.55;;
15012;SDS011;7603;49.432;11.418;2023-04-03T13:14:03;0.70;;;0.38;;
15012;SDS011;7603;49.432;11.418;2023-04-03T13:16:39;0.57;;;0.57;;
15012;SDS011;7603;49.432;11.418;2023-04-03T13:19:06;0.50;;;0.50;;
15012;SDS011;7603;49.432;11.418;2023-04-03T13:21:42;0.40;;;0.40;;
15012;SDS011;7603;49.432;11.418;2023-04-03T13:24:09;0.45;;;0.45;;
15012;SDS011;7603;49.432;11.418;2023-04-03T13:26:35;0.90;;;0.70;;
15012;SDS011;7603;49.432;11.418;2023-04-03T13:29:06;2.15;;;0.93;;
15012;SDS011;7603;49.432;11.418;2023-04-03T13:31:42;0.47;;;0.47;;
15012;SDS011;7603;49.432;11.418;2023-04-03T13:34:16;1.00;;;0.80;;
15012;SDS011;7603;49.432;11.418;2023-04-03T13:36:44;0.50;;;0.50;;
15012;SDS011;7603;49.432;11.418;2023-04-03T13:41:40;0.57;;;0.57;;
15012;SDS011;7603;49.432;11.418;2023-04-03T13:49:32;1.52;;;1.15;;
15012;SDS011;7603;49.432;11.418;2023-04-03T13:52:03;0.65;;;0.65;;
15012;SDS011;7603;49.432;11.418;2023-04-03T13:54:59;0.50;;;0.50;;
15012;SDS011;7603;49.432;11.418;2023-04-03T13:57:26;2.17;;;0.90;;
15012;SDS011;7603;49.432;11.418;2023-04-03T13:59:53;1.10;;;1.10;;
15012;SDS011;7603;49.432;11.418;2023-04-03T14:05:04;0.88;;;0.88;;
15012;SDS011;7603;49.432;11.418;2023-04-03T14:07:33;0.50;;;0.50;;
15012;SDS011;7603;49.432;11.418;2023-04-03T14:09:59;0.52;;;0.52;;
15012;SDS011;7603;49.432;11.418;2023-04-03T14:12:35;0.80;;;0.60;;
15012;SDS011;7603;49.432;11.418;2023-04-03T14:15:06;0.57;;;0.57;;
15012;SDS011;7603;49.432;11.418;2023-04-03T14:17:42;0.55;;;0.55;;
15012;SDS011;7603;49.432;11.418;2023-04-03T14:20:13;1.05;;;0.95;;
15012;SDS011;7603;49.432;11.418;2023-04-03T14:22:40;0.70;;;0.60;;
15012;SDS011;7603;49.432;11.418;2023-04-03T14:25:06;0.80;;;0.80;;
15012;SDS011;7603;49.432;11.418;2023-04-03T14:27:36;1.10;;;1.10;;
15012;SDS011;7603;49.432;11.418;2023-04-03T14:30:09;0.80;;;0.80;;
15012;SDS011;7603;49.432;11.418;2023-04-03T14:32:39;0.80;;;0.80;;
15012;SDS011;7603;49.432;11.418;2023-04-03T14:35:05;1.17;;;1.10;;
15012;SDS011;7603;49.432;11.418;2023-04-03T14:37:31;0.70;;;0.70;;
15012;SDS011;7603;49.432;11.418;2023-04-03T14:39:58;1.30;;;0.77;;
15012;SDS011;7603;49.432;11.418;2023-04-03T14:42:30;1.35;;;0.70;;
15012;SDS011;7603;49.432;11.418;2023-04-03T14:44:58;1.15;;;1.15;;
15012;SDS011;7603;49.432;11.418;2023-04-03T14:47:26;1.20;;;1.20;;
15012;SDS011;7603;49.432;11.418;2023-04-03T14:49:53;1.48;;;1.38;;
15012;SDS011;7603;49.432;11.418;2023-04-03T14:52:21;0.90;;;0.90;;
15012;SDS011;7603;49.432;11.418;2023-04-03T14:54:53;0.65;;;0.65;;
15012;SDS011;7603;49.432;11.418;2023-04-03T14:57:19;2.65;;;0.77;;
15012;SDS011;7603;49.432;11.418;2023-04-03T14:59:49;1.33;;;1.23;;
15012;SDS011;7603;49.432;11.418;2023-04-03T15:02:31;1.35;;;0.95;;
15012;SDS011;7603;49.432;11.418;2023-04-03T15:04:58;0.98;;;0.98;;
15012;SDS011;7603;49.432;11.418;2023-04-03T15:07:29;1.00;;;0.70;;
15012;SDS011;7603;49.432;11.418;2023-04-03T15:09:56;0.70;;;0.70;;
15012;SDS011;7603;49.432;11.418;2023-04-03T15:12:22;0.82;;;0.82;;
15012;SDS011;7603;49.432;11.418;2023-04-03T15:14:49;1.00;;;1.00;;
15012;SDS011;7603;49.432;11.418;2023-04-03T15:17:15;1.00;;;1.00;;
15012;SDS011;7603;49.432;11.418;2023-04-03T15:19:44;0.90;;;0.90;;
15012;SDS011;7603;49.432;11.418;2023-04-03T15:22:14;1.88;;;1.42;;
15012;SDS011;7603;49.432;11.418;2023-04-03T15:24:41;0.80;;;0.80;;
15012;SDS011;7603;49.432;11.418;2023-04-03T15:27:08;1.02;;;0.90;;
15012;SDS011;7603;49.432;11.418;2023-04-03T15:29:35;0.95;;;0.95;;
15012;SDS011;7603;49.432;11.418;2023-04-03T15:32:01;2.10;;;1.95;;
15012;SDS011;7603;49.432;11.418;2023-04-03T15:34:27;1.35;;;1.25;;
15012;SDS011;7603;49.432;11.418;2023-04-03T15:36:53;0.80;;;0.80;;
15012;SDS011;7603;49.432;11.418;2023-04-03T15:39:19;1.05;;;1.05;;
15012;SDS011;7603;49.432;11.418;2023-04-03T15:41:45;3.10;;;0.80;;
15012;SDS011;7603;49.432;11.418;2023-04-03T15:44:11;0.90;;;0.90;;
15012;SDS011;7603;49.432;11.418;2023-04-03T15:46:37;0.90;;;0.90;;
15012;SDS011;7603;49.432;11.418;2023-04-03T15:49:03;1.25;;;0.90;;
15012;SDS011;7603;49.432;11.418;2023-04-03T15:51:30;0.88;;;0.88;;
15012;SDS011;7603;49.432;11.418;2023-04-03T15:53:56;2.97;;;0.90;;
15012;SDS011;7603;49.432;11.418;2023-04-03T15:56:22;1.73;;;1.30;;
15012;SDS011;7603;49.432;11.418;2023-04-03T15:58:48;1.30;;;1.20;;
15012;SDS011;7603;49.432;11.418;2023-04-03T16:01:13;1.23;;;1.13;;
15012;SDS011;7603;49.432;11.418;2023-04-03T16:03:40;4.18;;;1.33;;
15012;SDS011;7603;49.432;11.418;2023-04-03T16:06:10;1.02;;;1.02;;
15012;SDS011;7603;49.432;11.418;2023-04-03T16:08:37;3.08;;;1.58;;
15012;SDS011;7603;49.432;11.418;2023-04-03T16:11:03;1.10;;;0.98;;
15012;SDS011;7603;49.432;11.418;2023-04-03T16:13:29;1.40;;;1.30;;
15012;SDS011;7603;49.432;11.418;2023-04-03T16:15:55;2.08;;;1.20;;
15012;SDS011;7603;49.432;11.418;2023-04-03T16:18:21;2.05;;;1.95;;
15012;SDS011;7603;49.432;11.418;2023-04-03T16:20:46;1.08;;;0.88;;
15012;SDS011;7603;49.432;11.418;2023-04-03T16:23:12;0.95;;;0.90;;
15012;SDS011;7603;49.432;11.418;2023-04-03T16:25:38;1.10;;;1.10;;
15012;SDS011;7603;49.432;11.418;2023-04-03T16:28:03;2.53;;;0.80;;
15012;SDS011;7603;49.432;11.418;2023-04-03T16:30:30;0.68;;;0.68;;
15012;SDS011;7603;49.432;11.418;2023-04-03T16:32:56;1.00;;;1.00;;
15012;SDS011;7603;49.432;11.418;2023-04-03T16:35:22;0.90;;;0.90;;
15012;SDS011;7603;49.432;11.418;2023-04-03T16:37:49;0.90;;;0.90;;
15012;SDS011;7603;49.432;11.418;2023-04-03T16:40:14;0.80;;;0.80;;
15012;SDS011;7603;49.432;11.418;2023-04-03T16:42:40;1.05;;;1.00;;
15012;SDS011;7603;49.432;11.418;2023-04-03T16:45:06;1.23;;;1.23;;
15012;SDS011;7603;49.432;11.418;2023-04-03T16:47:32;1.38;;;1.38;;
15012;SDS011;7603;49.432;11.418;2023-04-03T16:49:58;1.52;;;1.50;;
15012;SDS011;7603;49.432;11.418;2023-04-03T16:52:24;1.70;;;1.60;;
15012;SDS011;7603;49.432;11.418;2023-04-03T16:54:49;2.03;;;1.92;;